Time;durP1;ratioP1;P1;durP2;ratioP2;P2;SDS_P1;SDS_P2;PMS_P1;PMS_P2;Temp;Humidity;BMP_temperature;BMP_pressure;BME280_temperature;BME280_humidity;BME280_pressure;Samples;Min_cycle;Max_cycle;Signal;HPM_P1;HPM_P2
2022/12/06 00:01:17;;;;;;;;;52.00;42.75;;;;;4.20;100.00;101916.28;5040192;28;45645;-75
2022/12/06 00:03:45;;;;;;;;;57.50;42.75;;;;;4.23;100.00;101916.13;5035168;28;45469;-75
2022/12/06 00:06:16;;;;;;;;;51.75;40.75;;;;;4.33;100.00;101922.75;5040644;28;45342;-75
2022/12/06 00:08:42;;;;;;;;;59.25;42.25;;;;;4.30;100.00;101917.56;5037246;28;45382;-75
2022/12/06 00:11:18;;;;;;;;;55.25;42.75;;;;;4.31;100.00;101911.19;5034428;28;45406;-75
2022/12/06 00:13:43;;;;;;;;;58.50;45.75;;;;;4.17;100.00;101908.34;5032900;28;46786;-77
2022/12/06 00:16:11;;;;;;;;;50.50;43.00;;;;;4.25;100.00;101916.91;5042020;28;46486;-75
2022/12/06 00:18:38;;;;;;;;;45.00;39.00;;;;;4.26;100.00;101916.81;5031771;28;45460;-74
2022/12/06 00:21:08;;;;;;;;;67.00;48.00;;;;;4.24;100.00;101912.47;5033148;28;46005;-75
2022/12/06 00:23:38;;;;;;;;;63.25;46.25;;;;;4.15;100.00;101894.13;5037925;28;46065;-76
2022/12/06 00:26:04;;;;;;;;;49.50;38.50;;;;;4.18;100.00;101896.66;5039707;28;45372;-75
2022/12/06 00:28:29;;;;;;;;;48.25;41.75;;;;;4.22;100.00;101896.44;5035015;28;45338;-75
2022/12/06 00:30:59;;;;;;;;;61.25;42.50;;;;;4.23;100.00;101891.91;5041986;28;45526;-75
2022/12/06 00:33:25;;;;;;;;;47.50;37.75;;;;;4.17;100.00;101894.91;5036661;28;45176;-75
2022/12/06 00:35:58;;;;;;;;;55.00;42.00;;;;;4.15;100.00;101883.38;5036620;28;45314;-75
2022/12/06 00:38:24;;;;;;;;;57.25;42.00;;;;;4.22;100.00;101879.41;5037020;28;45254;-75
2022/12/06 00:40:50;;;;;;;;;53.25;44.00;;;;;4.25;100.00;101888.19;5040454;28;45248;-75
2022/12/06 00:43:15;;;;;;;;;61.25;43.75;;;;;4.25;100.00;101880.09;5038590;28;47558;-76
2022/12/06 00:45:42;;;;;;;;;55.00;41.00;;;;;4.29;100.00;101887.09;5031583;28;45389;-75
2022/12/06 00:48:07;;;;;;;;;55.75;44.50;;;;;4.23;100.00;101867.72;5037278;28;45152;-75
2022/12/06 00:50:32;;;;;;;;;56.75;41.75;;;;;4.25;100.00;101873.84;5036872;28;45430;-75
2022/12/06 00:52:58;;;;;;;;;53.50;43.00;;;;;4.19;100.00;101879.56;5039112;28;47363;-75
2022/12/06 00:55:23;;;;;;;;;58.25;45.25;;;;;4.14;100.00;101876.25;5040280;28;45428;-74
2022/12/06 00:57:48;;;;;;;;;60.50;45.50;;;;;4.24;100.00;101872.13;5039324;28;45353;-74
2022/12/06 01:00:14;;;;;;;;;51.50;39.50;;;;;4.24;100.00;101872.13;5037899;28;45379;-74
2022/12/06 01:02:39;;;;;;;;;52.25;42.75;;;;;4.30;100.00;101866.44;5035206;28;46930;-75
2022/12/06 01:05:06;;;;;;;;;56.25;41.00;;;;;4.38;100.00;101869.59;5041916;28;45397;-75
2022/12/06 01:07:31;;;;;;;;;57.00;43.00;;;;;4.36;100.00;101871.50;5035450;28;45448;-75
2022/12/06 01:09:57;;;;;;;;;61.00;47.00;;;;;4.36;100.00;101863.41;5033999;28;45471;-75
2022/12/06 01:12:22;;;;;;;;;57.25;40.50;;;;;4.41;100.00;101869.41;5041276;28;47185;-75
2022/12/06 01:14:47;;;;;;;;;54.25;42.50;;;;;4.49;100.00;101875.25;5031451;28;45583;-75
2022/12/06 01:17:13;;;;;;;;;57.75;43.50;;;;;4.41;100.00;101864.03;5036138;28;45439;-75
2022/12/06 01:19:38;;;;;;;;;60.75;46.25;;;;;4.45;100.00;101875.50;5036019;28;45691;-76
2022/12/06 01:22:03;;;;;;;;;50.75;43.00;;;;;4.46;100.00;101867.34;5036565;28;49746;-75
2022/12/06 01:24:29;;;;;;;;;44.50;39.25;;;;;4.53;100.00;101870.59;5038736;28;45279;-76
2022/12/06 01:26:54;;;;;;;;;46.25;40.25;;;;;4.45;100.00;101871.00;5038111;28;46008;-74
2022/12/06 01:29:20;;;;;;;;;51.00;40.25;;;;;4.44;100.00;101876.47;5037539;28;45383;-75
2022/12/06 01:31:45;;;;;;;;;54.50;43.00;;;;;4.44;100.00;101877.34;5037104;28;45360;-76
2022/12/06 01:34:14;;;;;;;;;47.50;40.50;;;;;4.50;100.00;101878.81;5028282;28;45371;-76
2022/12/06 01:36:39;;;;;;;;;49.25;40.25;;;;;4.40;100.00;101867.66;5031588;28;45417;-75
2022/12/06 01:39:05;;;;;;;;;52.25;42.50;;;;;4.34;100.00;101862.63;5029872;28;45572;-75
2022/12/06 01:41:31;;;;;;;;;46.00;38.50;;;;;4.40;100.00;101878.44;5027010;28;45652;-74
2022/12/06 01:43:56;;;;;;;;;44.75;32.25;;;;;4.46;100.00;101872.72;5041449;28;45318;-74
2022/12/06 01:46:43;;;;;;;;;53.25;41.50;;;;;4.46;100.00;101871.84;5028142;28;45445;-75
2022/12/06 01:49:11;;;;;;;;;51.50;39.00;;;;;4.49;100.00;101869.00;5038938;28;45495;-75
2022/12/06 01:51:39;;;;;;;;;50.75;39.25;;;;;4.49;100.00;101872.56;5039145;28;47020;-75
2022/12/06 01:54:09;;;;;;;;;45.25;39.00;;;;;4.42;100.00;101864.91;5032973;28;45310;-75
2022/12/06 01:56:37;;;;;;;;;42.75;33.50;;;;;4.36;100.00;101870.63;5035947;28;45215;-75
2022/12/06 01:59:02;;;;;;;;;57.75;41.25;;;;;4.34;100.00;101870.69;5038600;28;45528;-75
2022/12/06 02:01:29;;;;;;;;;45.00;39.00;;;;;4.30;100.00;101870.00;5038822;28;45539;-75
2022/12/06 02:03:57;;;;;;;;;54.50;41.75;;;;;4.29;100.00;101873.63;5041078;28;45422;-76
2022/12/06 02:06:23;;;;;;;;;45.00;37.50;;;;;4.28;100.00;101871.03;5041687;28;45374;-75
2022/12/06 02:08:50;;;;;;;;;54.75;40.50;;;;;4.31;100.00;101882.47;5027876;28;45248;-75
2022/12/06 02:11:16;;;;;;;;;53.00;42.00;;;;;4.31;100.00;101878.91;5031043;28;46056;-75
2022/12/06 02:13:41;;;;;;;;;46.25;37.75;;;;;4.27;100.00;101878.22;5039892;28;45472;-75
2022/12/06 02:16:25;;;;;;;;;57.00;45.00;;;;;4.32;100.00;101880.66;5037509;28;45772;-75
2022/12/06 02:18:59;;;;;;;;;52.50;41.25;;;;;4.28;100.00;101879.97;5040920;28;45449;-75
2022/12/06 02:21:42;;;;;;;;;40.75;39.00;;;;;4.23;100.00;101881.16;5034527;28;47193;-75
2022/12/06 02:24:57;;;;;;;;;46.75;35.75;;;;;4.20;100.00;101886.69;5030558;28;45461;-75
2022/12/06 02:27:48;;;;;;;;;52.50;41.75;;;;;4.16;100.00;101891.38;5029163;28;45424;-75
2022/12/06 02:30:54;;;;;;;;;47.25;39.25;;;;;4.22;100.00;101892.88;5032210;28;45345;-75
2022/12/06 02:33:23;;;;;;;;;43.25;36.25;;;;;4.22;100.00;101892.88;5041140;28;46595;-76
2022/12/06 02:36:02;;;;;;;;;46.75;37.00;;;;;4.22;100.00;101891.06;5038626;28;45370;-76
2022/12/06 02:38:33;;;;;;;;;59.50;43.50;;;;;4.25;100.00;101898.06;5029835;28;45568;-74
2022/12/06 02:41:08;;;;;;;;;51.00;39.25;;;;;4.26;100.00;101878.28;5028930;28;45571;-74
2022/12/06 02:43:40;;;;;;;;;55.00;43.25;;;;;4.30;100.00;101878.06;5030687;28;45612;-74
2022/12/06 02:46:09;;;;;;;;;50.25;39.00;;;;;4.37;100.00;101875.91;5033190;28;45342;-75
2022/12/06 02:48:35;;;;;;;;;55.00;41.25;;;;;4.48;100.00;101883.41;5030953;28;45402;-74
2022/12/06 02:51:07;;;;;;;;;59.25;41.25;;;;;4.55;100.00;101869.53;5035920;28;45263;-74
2022/12/06 02:53:38;;;;;;;;;54.50;41.25;;;;;4.62;100.00;101879.03;5031206;28;46597;-75
2022/12/06 02:56:04;;;;;;;;;55.50;43.25;;;;;4.63;100.00;101874.50;5036485;28;45447;-75
2022/12/06 02:58:36;;;;;;;;;54.25;40.25;;;;;4.66;100.00;101874.34;5033427;28;45355;-75
2022/12/06 03:01:05;;;;;;;;;57.50;41.00;;;;;4.60;100.00;101869.31;5039475;28;45356;-75
2022/12/06 03:03:42;;;;;;;;;56.75;41.00;;;;;4.57;100.00;101875.72;5039481;28;47243;-75
2022/12/06 03:06:32;;;;;;;;;64.75;49.00;;;;;4.49;100.00;101883.31;5040147;28;45291;-75
2022/12/06 03:08:57;;;;;;;;;56.00;43.25;;;;;4.48;100.00;101881.59;5034274;28;45477;-75
2022/12/06 03:11:31;;;;;;;;;59.50;45.25;;;;;4.33;100.00;101866.25;5033462;28;45579;-75
2022/12/06 03:14:09;;;;;;;;;58.00;42.50;;;;;4.44;100.00;101888.09;5031441;28;46739;-75
2022/12/06 03:16:41;;;;;;;;;60.75;44.75;;;;;4.47;100.00;101885.22;5037215;28;45377;-75
2022/12/06 03:19:30;;;;;;;;;60.75;46.00;;;;;4.44;100.00;101873.78;5037193;28;45432;-75
2022/12/06 03:22:10;;;;;;;;;55.75;41.50;;;;;4.33;100.00;101877.00;5033466;28;45371;-75
2022/12/06 03:24:40;;;;;;;;;64.75;43.00;;;;;4.37;100.00;101878.63;5037340;28;48361;-76
2022/12/06 03:27:11;;;;;;;;;63.00;43.25;;;;;4.42;100.00;101879.22;5036035;28;45469;-74
2022/12/06 03:29:42;;;;;;;;;57.00;43.00;;;;;4.38;100.00;101883.03;5036084;28;45207;-76
2022/12/06 03:32:11;;;;;;;;;57.00;39.75;;;;;4.41;100.00;101884.69;5037593;28;45546;-76
2022/12/06 03:34:48;;;;;;;;;58.25;44.50;;;;;4.32;100.00;101875.28;5042827;28;48682;-75
2022/12/06 03:37:19;;;;;;;;;62.50;43.00;;;;;4.37;100.00;101881.31;5042780;28;45315;-75
2022/12/06 03:39:51;;;;;;;;;64.00;46.75;;;;;4.38;100.00;101883.03;5030822;28;45337;-75
2022/12/06 03:42:17;;;;;;;;;62.00;46.00;;;;;4.44;100.00;101874.66;5037880;28;45484;-75
2022/12/06 03:44:43;;;;;;;;;57.75;43.50;;;;;4.35;100.00;101879.63;5032830;28;46421;-75
2022/12/06 03:47:31;;;;;;;;;51.50;42.00;;;;;4.31;100.00;101887.84;5039145;28;45374;-75
2022/12/06 03:50:01;;;;;;;;;57.00;42.50;;;;;4.26;100.00;101875.59;5032597;28;45534;-75
2022/12/06 03:52:28;;;;;;;;;58.50;43.50;;;;;4.29;100.00;101883.53;5041256;28;45545;-75
2022/12/06 03:54:53;;;;;;;;;53.75;42.75;;;;;4.27;100.00;101871.97;5040256;28;46971;-75
2022/12/06 03:57:19;;;;;;;;;64.00;47.75;;;;;4.32;100.00;101877.97;5035282;28;46808;-75
2022/12/06 03:59:45;;;;;;;;;64.00;46.25;;;;;4.27;100.00;101866.59;5035586;28;45595;-75
2022/12/06 04:02:10;;;;;;;;;48.50;39.75;;;;;4.22;100.00;101884.78;5041573;28;45427;-74
2022/12/06 04:04:35;;;;;;;;;44.50;34.25;;;;;4.16;100.00;101879.75;5038842;28;46633;-75
2022/12/06 04:07:01;;;;;;;;;52.00;40.25;;;;;4.18;100.00;101886.75;5038712;28;45358;-75
2022/12/06 04:14:54;;;;;;;;;60.50;44.75;;;;;4.31;100.00;101881.59;5033301;28;45817;-75
2022/12/06 04:20:04;;;;;;;;;49.75;42.25;;;;;4.36;100.00;101884.06;5036284;28;45243;-74
2022/12/06 04:25:14;;;;;;;;;47.50;38.50;;;;;4.30;100.00;101871.81;5031984;28;45231;-75
2022/12/06 04:38:39;;;;;;;;;43.75;34.75;;;;;4.57;100.00;101870.34;5034415;28;45313;-75
2022/12/06 04:41:04;;;;;;;;;37.25;33.50;;;;;4.55;100.00;101861.47;5031842;28;45433;-76
2022/12/06 04:43:41;;;;;;;;;40.75;34.00;;;;;4.64;100.00;101870.88;5033064;28;45169;-76
2022/12/06 04:46:11;;;;;;;;;42.75;35.50;;;;;4.67;100.00;101873.41;5029656;28;45575;-75
2022/12/06 04:48:38;;;;;;;;;37.50;34.50;;;;;4.66;100.00;101869.84;5035904;28;45526;-76
2022/12/06 04:51:03;;;;;;;;;40.25;35.00;;;;;4.65;100.00;101861.84;5040590;28;45494;-75
2022/12/06 04:53:29;;;;;;;;;38.00;31.25;;;;;4.67;100.00;101863.50;5042497;28;45284;-76
2022/12/06 04:55:54;;;;;;;;;44.25;37.50;;;;;4.62;100.00;101862.00;5041232;28;45964;-76
2022/12/06 04:58:19;;;;;;;;;40.75;34.50;;;;;4.63;100.00;101858.38;5041321;28;45433;-75
2022/12/06 05:00:45;;;;;;;;;38.50;35.75;;;;;4.60;100.00;101869.31;5036225;28;45235;-78
2022/12/06 05:03:11;;;;;;;;;47.75;36.25;;;;;4.56;100.00;101852.44;5036646;28;45235;-78
2022/12/06 05:05:36;;;;;;;;;48.75;38.50;;;;;4.54;100.00;101854.34;5037236;28;45536;-78
2022/12/06 05:08:02;;;;;;;;;44.50;32.75;;;;;4.55;100.00;101855.22;5030957;28;45434;-77
2022/12/06 05:10:28;;;;;;;;;44.75;34.00;;;;;4.60;100.00;101854.00;5039559;28;45359;-77
2022/12/06 05:12:53;;;;;;;;;48.25;39.00;;;;;4.61;100.00;101844.97;5031715;28;45403;-78
2022/12/06 05:15:18;;;;;;;;;44.75;30.75;;;;;4.56;100.00;101854.25;5040792;28;46747;-77
2022/12/06 05:17:44;;;;;;;;;48.50;38.25;;;;;4.40;100.00;101840.75;5039967;28;45467;-78
2022/12/06 05:20:09;;;;;;;;;55.00;40.50;;;;;4.47;100.00;101852.94;5036787;28;45264;-77
2022/12/06 05:22:34;;;;;;;;;56.50;41.00;;;;;4.37;100.00;101835.56;5041311;28;45478;-77
2022/12/06 05:25:00;;;;;;;;;49.25;39.25;;;;;4.47;100.00;101844.00;5039733;28;45356;-77
2022/12/06 05:27:25;;;;;;;;;58.75;41.00;;;;;4.57;100.00;101846.13;5038660;28;45343;-76
2022/12/06 05:29:50;;;;;;;;;48.25;38.75;;;;;4.63;100.00;101853.84;5034298;28;45493;-77
2022/12/06 05:32:16;;;;;;;;;47.25;40.25;;;;;4.69;100.00;101842.75;5027928;28;45354;-76
2022/12/06 05:34:41;;;;;;;;;53.25;38.75;;;;;4.70;100.00;101849.00;5027516;28;46473;-77
2022/12/06 05:37:06;;;;;;;;;45.50;34.50;;;;;4.73;100.00;101839.91;5040609;28;45346;-78
2022/12/06 05:39:32;;;;;;;;;22.25;16.50;;;;;4.76;100.00;101837.88;5041765;28;45404;-77
2022/12/06 05:41:57;;;;;;;;;47.00;40.00;;;;;4.75;100.00;101833.44;5035697;28;45624;-78
2022/12/06 05:44:22;;;;;;;;;45.75;39.00;;;;;4.75;100.00;101832.63;5030075;28;46354;-78
2022/12/06 05:46:48;;;;;;;;;47.75;39.25;;;;;4.81;100.00;101835.84;5039367;28;45417;-78
2022/12/06 05:49:13;;;;;;;;;49.25;41.50;;;;;4.69;100.00;101826.59;5030719;28;45622;-79
2022/12/06 05:51:38;;;;;;;;;51.50;40.00;;;;;4.69;100.00;101831.97;5040954;28;45267;-77
2022/12/06 05:54:05;;;;;;;;;50.25;39.25;;;;;4.66;100.00;101824.09;5033833;28;46766;-78
2022/12/06 05:56:31;;;;;;;;;49.00;41.00;;;;;4.74;100.00;101834.44;5039219;28;45239;-76
2022/12/06 05:58:57;;;;;;;;;49.50;39.25;;;;;4.81;100.00;101846.59;5032459;28;45242;-78
2022/12/06 06:01:22;;;;;;;;;48.75;39.00;;;;;4.83;100.00;101839.28;5039175;28;45483;-77
2022/12/06 06:03:47;;;;;;;;;47.50;41.00;;;;;4.81;100.00;101826.88;5037761;28;46815;-77
2022/12/06 06:06:13;;;;;;;;;47.00;38.75;;;;;4.87;100.00;101845.38;5031550;28;47980;-76
2022/12/06 06:08:39;;;;;;;;;49.00;37.00;;;;;4.87;100.00;101846.25;5036627;28;45446;-77
2022/12/06 06:11:04;;;;;;;;;45.50;39.50;;;;;4.89;100.00;101832.72;5030624;28;45453;-77
2022/12/06 06:13:29;;;;;;;;;55.25;44.50;;;;;4.94;100.00;101838.69;5030657;28;45503;-77
2022/12/06 06:15:55;;;;;;;;;56.00;41.25;;;;;5.02;100.00;101845.41;5037919;28;45465;-79
2022/12/06 06:18:21;;;;;;;;;42.25;38.50;;;;;5.02;100.00;101847.22;5036108;28;45364;-77
2022/12/06 06:20:49;;;;;;;;;56.00;43.25;;;;;4.94;100.00;101850.34;5040143;28;45508;-77
2022/12/06 06:23:14;;;;;;;;;51.75;39.50;;;;;4.76;100.00;101837.00;5027920;28;45620;-76
2022/12/06 06:25:39;;;;;;;;;55.75;37.25;;;;;4.85;100.00;101837.38;5030678;28;45421;-77
2022/12/06 06:28:05;;;;;;;;;42.00;36.75;;;;;4.93;100.00;101845.03;5032913;28;45382;-77
2022/12/06 06:30:30;;;;;;;;;43.75;37.50;;;;;5.04;100.00;101845.31;5032127;28;45382;-78
2022/12/06 06:32:55;;;;;;;;;57.25;42.25;;;;;5.01;100.00;101848.19;5033842;28;45605;-77
2022/12/06 06:35:21;;;;;;;;;61.00;44.00;;;;;4.83;100.00;101849.19;5033419;28;45346;-78
2022/12/06 06:37:47;;;;;;;;;55.75;40.75;;;;;4.80;100.00;101858.31;5034274;28;45464;-78
2022/12/06 06:40:12;;;;;;;;;52.75;43.00;;;;;4.75;100.00;101851.47;5034370;28;45251;-77
2022/12/06 06:42:38;;;;;;;;;53.00;43.50;;;;;4.65;100.00;101851.09;5036742;28;45390;-77
2022/12/06 06:45:04;;;;;;;;;48.25;38.75;;;;;4.67;100.00;101852.75;5031959;28;45349;-79
2022/12/06 06:47:29;;;;;;;;;59.75;44.75;;;;;4.78;100.00;101862.03;5035549;28;45262;-80
2022/12/06 06:49:54;;;;;;;;;55.75;42.50;;;;;4.73;100.00;101869.50;5041271;28;45382;-79
2022/12/06 06:52:20;;;;;;;;;59.75;42.25;;;;;4.60;100.00;101853.16;5039797;28;47886;-78
2022/12/06 06:54:45;;;;;;;;;53.50;43.75;;;;;4.66;100.00;101869.84;5044165;28;45350;-78
2022/12/06 06:57:10;;;;;;;;;41.25;32.50;;;;;4.67;100.00;101868.03;5040259;28;45471;-78
2022/12/06 06:59:36;;;;;;;;;54.00;41.75;;;;;4.63;100.00;101863.75;5033363;28;45250;-78
2022/12/06 07:02:01;;;;;;;;;59.00;41.25;;;;;4.64;100.00;101860.97;5036682;28;46471;-80
2022/12/06 07:04:26;;;;;;;;;58.75;41.50;;;;;4.74;100.00;101858.66;5035791;28;45247;-77
2022/12/06 07:06:52;;;;;;;;;60.50;37.25;;;;;4.84;100.00;101861.69;5037781;28;46373;-79
2022/12/06 07:09:17;;;;;;;;;58.75;42.00;;;;;4.84;100.00;101854.50;5037992;28;45452;-78
2022/12/06 07:11:42;;;;;;;;;46.50;40.50;;;;;4.85;100.00;101860.75;5035891;28;45429;-78
2022/12/06 07:14:07;;;;;;;;;50.75;37.00;;;;;4.66;100.00;101864.47;5037593;28;45412;-77
2022/12/06 07:16:33;;;;;;;;;64.00;47.75;;;;;4.63;100.00;101864.63;5033878;28;45474;-78
2022/12/06 07:18:58;;;;;;;;;67.00;44.50;;;;;4.64;100.00;101857.41;5035124;28;45394;-78
2022/12/06 07:21:24;;;;;;;;;59.00;43.75;;;;;4.70;100.00;101859.75;5038698;28;48146;-78
2022/12/06 07:23:50;;;;;;;;;64.25;46.75;;;;;4.68;100.00;101862.53;5031514;28;45144;-79
2022/12/06 07:26:18;;;;;;;;;48.25;42.00;;;;;4.67;100.00;101854.56;5031593;28;45537;-77
2022/12/06 07:28:46;;;;;;;;;55.50;43.00;;;;;4.62;100.00;101857.50;5035316;28;45434;-77
2022/12/06 07:31:17;;;;;;;;;71.50;48.50;;;;;4.63;100.00;101856.53;5030265;28;45683;-78
2022/12/06 07:33:43;;;;;;;;;57.00;44.50;;;;;4.71;100.00;101866.91;5032385;28;45346;-78
2022/12/06 07:36:10;;;;;;;;;58.50;41.50;;;;;4.76;100.00;101858.56;5030993;28;45514;-79
2022/12/06 07:38:35;;;;;;;;;63.50;48.50;;;;;4.73;100.00;101862.31;5029558;28;45320;-78
2022/12/06 07:44:59;;;;;;;;;57.00;45.25;;;;;4.75;100.00;101851.47;5033423;28;46384;-79
2022/12/06 07:46:31;;;;;;;;;65.00;52.00;;;;;4.83;100.00;101858.13;5033892;28;45366;-77
2022/12/06 07:48:57;;;;;;;;;57.25;41.75;;;;;4.91;100.00;101863.09;5034999;28;45679;-77
2022/12/06 07:51:22;;;;;;;;;65.25;49.50;;;;;4.90;100.00;101855.97;5027327;28;45371;-77
2022/12/06 07:53:49;;;;;;;;;68.25;53.00;;;;;5.00;100.00;101865.28;5034894;28;45291;-82
2022/12/06 07:56:14;;;;;;;;;65.50;50.75;;;;;5.02;100.00;101855.31;5027949;28;45378;-79
2022/12/06 07:58:40;;;;;;;;;67.25;49.00;;;;;4.97;100.00;101858.22;5034384;28;45350;-80
2022/12/06 08:01:05;;;;;;;;;72.75;51.25;;;;;4.97;100.00;101860.06;5024010;28;45392;-78
2022/12/06 08:03:32;;;;;;;;;66.75;49.00;;;;;5.01;100.00;101865.19;5030219;28;45229;-80
2022/12/06 08:05:57;;;;;;;;;60.00;46.75;;;;;5.00;100.00;101862.59;5027259;28;45283;-78
2022/12/06 08:08:23;;;;;;;;;66.50;50.25;;;;;5.05;100.00;101863.19;5026668;28;45671;-77
2022/12/06 08:10:48;;;;;;;;;64.25;46.00;;;;;5.01;100.00;101867.03;5019768;28;47173;-77
2022/12/06 08:13:13;;;;;;;;;39.50;29.00;;;;;5.00;100.00;101870.66;5035054;28;45482;-79
2022/12/06 08:15:39;;;;;;;;;59.25;44.75;;;;;5.04;100.00;101880.34;5024321;28;45415;-78
2022/12/06 08:18:04;;;;;;;;;64.50;43.25;;;;;5.05;100.00;101876.66;5037421;28;45328;-76
2022/12/06 08:20:30;;;;;;;;;62.00;46.25;;;;;5.10;100.00;101885.38;5022086;28;46947;-77
2022/12/06 08:22:55;;;;;;;;;64.50;53.00;;;;;5.00;100.00;101878.75;5046814;28;45658;-79
2022/12/06 08:25:20;;;;;;;;;65.50;52.50;;;;;4.92;100.00;101886.38;5021444;28;45618;-79
2022/12/06 08:27:46;;;;;;;;;77.00;56.00;;;;;4.93;100.00;101904.28;5033060;28;45728;-79
2022/12/06 08:30:11;;;;;;;;;71.25;51.75;;;;;4.94;100.00;101903.34;5023485;28;45338;-78
2022/12/06 08:32:37;;;;;;;;;71.00;52.50;;;;;5.02;100.00;101898.41;5035893;28;45758;-79
2022/12/06 08:35:02;;;;;;;;;71.50;52.75;;;;;4.96;100.00;101885.28;5036961;28;46104;-79
2022/12/06 08:37:27;;;;;;;;;63.25;47.25;;;;;4.85;100.00;101893.06;5028600;28;45522;-78
2022/12/06 08:39:53;;;;;;;;;68.25;51.25;;;;;4.78;100.00;101902.41;5049272;28;50403;-78
2022/12/06 08:42:18;;;;;;;;;56.50;42.00;;;;;4.84;100.00;101907.47;5031011;28;45353;-79
2022/12/06 08:44:43;;;;;;;;;78.00;55.50;;;;;4.78;100.00;101910.50;5031840;28;45323;-80
2022/12/06 08:47:09;;;;;;;;;66.50;49.75;;;;;4.88;100.00;101917.13;5035510;28;45494;-79
2022/12/06 08:49:34;;;;;;;;;68.75;54.75;;;;;4.99;100.00;101928.19;5023123;28;46823;-75
2022/12/06 08:52:00;;;;;;;;;73.00;53.00;;;;;4.89;100.00;101918.88;5031088;28;47636;-77
2022/12/06 08:54:26;;;;;;;;;69.50;51.50;;;;;4.92;100.00;101924.06;5031808;28;45506;-75
2022/12/06 08:56:52;;;;;;;;;67.00;52.25;;;;;4.94;100.00;101919.50;5031409;28;45774;-77
2022/12/06 08:59:18;;;;;;;;;59.50;47.75;;;;;4.85;100.00;101919.97;5027993;28;46173;-78
2022/12/06 09:01:44;;;;;;;;;75.25;54.25;;;;;4.94;100.00;101932.94;5026623;28;45455;-78
2022/12/06 09:04:10;;;;;;;;;70.50;51.50;;;;;4.95;100.00;101916.72;5034064;28;45448;-78
2022/12/06 09:06:38;;;;;;;;;72.50;50.00;;;;;5.02;100.00;101922.63;5027788;28;45424;-78
2022/12/06 09:09:03;;;;;;;;;74.00;54.00;;;;;5.03;100.00;101929.78;5020289;28;47459;-77
2022/12/06 09:11:29;;;;;;;;;71.50;50.75;;;;;4.87;100.00;101921.66;5037459;28;45361;-78
2022/12/06 09:13:54;;;;;;;;;66.50;48.25;;;;;4.96;100.00;101926.53;5024921;28;45404;-77
2022/12/06 09:16:22;;;;;;;;;64.75;49.50;;;;;5.01;100.00;101934.34;5031210;28;45382;-78
2022/12/06 09:18:48;;;;;;;;;63.00;49.25;;;;;4.85;100.00;101931.63;5034333;28;46797;-79
2022/12/06 09:21:23;;;;;;;;;66.50;49.25;;;;;4.86;100.00;101929.81;5028667;28;45419;-80
2022/12/06 09:23:49;;;;;;;;;68.75;48.25;;;;;4.94;100.00;101932.94;5030485;28;45441;-80
2022/12/06 09:26:15;;;;;;;;;69.00;49.75;;;;;4.96;100.00;101947.22;5031786;28;45533;-78
2022/12/06 09:28:43;;;;;;;;;81.00;55.50;;;;;4.99;100.00;101942.50;5024159;28;47063;-80
2022/12/06 09:31:09;;;;;;;;;70.75;53.50;;;;;5.00;100.00;101943.38;5027961;28;45439;-79
2022/12/06 09:33:34;;;;;;;;;71.00;54.75;;;;;4.94;100.00;101944.59;5023640;28;45275;-79
2022/12/06 09:36:05;;;;;;;;;78.00;56.25;;;;;4.98;100.00;101940.78;5023232;28;45601;-80
2022/12/06 09:38:35;;;;;;;;;75.00;55.00;;;;;4.91;100.00;101938.50;5031860;28;45425;-80
2022/12/06 09:41:33;;;;;;;;;73.75;53.50;;;;;4.98;100.00;101946.16;5024586;28;45491;-76
2022/12/06 09:44:20;;;;;;;;;74.75;56.75;;;;;5.04;100.00;101944.97;5033846;28;45389;-79
2022/12/06 09:47:07;;;;;;;;;68.25;51.25;;;;;5.02;100.00;101944.19;5024752;28;45305;-78
2022/12/06 09:49:41;;;;;;;;;65.00;50.25;;;;;5.02;100.00;101942.38;5020724;28;47487;-79
2022/12/06 09:52:07;;;;;;;;;67.25;46.50;;;;;5.12;100.00;101949.91;5033840;28;45465;-78
2022/12/06 09:54:32;;;;;;;;;78.25;54.75;;;;;5.06;100.00;101954.69;5030030;28;45632;-79
2022/12/06 09:57:04;;;;;;;;;67.50;51.25;;;;;5.04;100.00;101958.44;5025231;28;45365;-79
2022/12/06 09:59:45;;;;;;;;;72.00;55.00;;;;;4.97;100.00;101954.31;5026984;28;45334;-78
2022/12/06 10:02:31;;;;;;;;;63.00;49.50;;;;;5.01;100.00;101950.53;5026708;28;45306;-78
2022/12/06 10:05:32;;;;;;;;;68.25;51.75;;;;;5.04;100.00;101953.06;5044259;28;45396;-77
2022/12/06 10:08:23;;;;;;;;;78.00;56.25;;;;;4.99;100.00;101945.22;5025995;28;45464;-79
2022/12/06 10:11:20;;;;;;;;;73.00;56.25;;;;;5.02;100.00;101946.88;5037089;28;46441;-79
2022/12/06 10:14:15;;;;;;;;;70.00;49.75;;;;;5.07;100.00;101950.19;5045135;28;45390;-80
2022/12/06 10:16:54;;;;;;;;;71.25;54.00;;;;;5.08;100.00;101952.78;5016122;28;45399;-78
2022/12/06 10:19:50;;;;;;;;;81.75;56.00;;;;;5.12;100.00;101958.88;5027387;28;45444;-79
2022/12/06 10:22:21;;;;;;;;;70.25;53.25;;;;;4.96;100.00;101952.59;5032482;28;45484;-78
2022/12/06 10:25:09;;;;;;;;;73.75;50.50;;;;;5.00;100.00;101955.03;5028641;28;44879;-78
2022/12/06 10:27:46;;;;;;;;;63.00;48.00;;;;;4.87;100.00;101948.56;5036446;28;45388;-80
2022/12/06 10:30:14;;;;;;;;;70.75;56.00;;;;;4.86;100.00;101944.13;5027182;28;45364;-78
2022/12/06 10:32:53;;;;;;;;;80.25;57.50;;;;;4.94;100.00;101941.03;5045416;28;47557;-78
2022/12/06 10:35:27;;;;;;;;;66.50;50.50;;;;;4.96;100.00;101948.09;5024207;28;44924;-78
2022/12/06 10:38:10;;;;;;;;;72.75;53.00;;;;;4.87;100.00;101955.78;5034438;28;45497;-78
2022/12/06 10:40:50;;;;;;;;;73.00;52.00;;;;;4.92;100.00;101959.97;5026112;28;45345;-78
2022/12/06 10:43:48;;;;;;;;;72.75;52.75;;;;;5.01;100.00;101958.59;5037780;28;45591;-78
2022/12/06 10:49:29;;;;;;;;;68.25;46.25;;;;;5.10;100.00;101950.03;5033022;28;45295;-78
2022/12/06 10:52:00;;;;;;;;;71.75;47.50;;;;;5.05;100.00;101944.88;5032498;28;45684;-77
2022/12/06 10:54:28;;;;;;;;;74.00;54.25;;;;;4.96;100.00;101944.53;5034409;28;45568;-78
2022/12/06 10:56:58;;;;;;;;;73.00;55.25;;;;;4.91;100.00;101944.75;5030884;28;45549;-77
2022/12/06 10:59:38;;;;;;;;;68.00;51.50;;;;;4.97;100.00;101943.53;5029052;28;45556;-78
2022/12/06 11:02:21;;;;;;;;;74.00;54.75;;;;;5.10;100.00;101933.84;5038964;28;45361;-78
2022/12/06 11:04:48;;;;;;;;;81.25;52.50;;;;;5.09;100.00;101941.06;5029049;28;45392;-80
2022/12/06 11:07:20;;;;;;;;;73.50;54.00;;;;;5.20;100.00;101936.91;5034190;28;45426;-77
2022/12/06 11:09:52;;;;;;;;;72.25;54.75;;;;;5.25;100.00;101941.09;5034687;28;45452;-78
2022/12/06 11:12:35;;;;;;;;;64.25;49.50;;;;;5.24;100.00;101942.03;5035778;28;45812;-80
2022/12/06 11:15:12;;;;;;;;;69.25;52.25;;;;;5.22;100.00;101933.16;5028610;28;46275;-78
2022/12/06 11:17:43;;;;;;;;;72.25;52.50;;;;;5.28;100.00;101932.81;5037121;28;45862;-78
2022/12/06 11:20:18;;;;;;;;;69.50;53.75;;;;;5.24;100.00;101931.28;5033854;28;45432;-78
2022/12/06 11:22:52;;;;;;;;;74.25;54.50;;;;;5.25;100.00;101932.16;5028929;28;45355;-79
2022/12/06 11:25:33;;;;;;;;;61.50;51.00;;;;;5.35;100.00;101928.81;5033637;28;45437;-78
2022/12/06 11:28:23;;;;;;;;;69.75;53.75;;;;;5.43;100.00;101925.69;5033405;28;45413;-77
2022/12/06 11:30:51;;;;;;;;;75.50;56.50;;;;;5.44;100.00;101931.00;5026314;28;45451;-79
2022/12/06 11:33:20;;;;;;;;;67.75;49.75;;;;;5.40;100.00;101920.50;5036856;28;45536;-79
2022/12/06 11:35:46;;;;;;;;;80.25;58.50;;;;;5.33;100.00;101925.34;5033054;28;46007;-79
2022/12/06 11:38:14;;;;;;;;;70.75;53.75;;;;;5.30;100.00;101920.16;5043103;28;45366;-79
2022/12/06 11:40:50;;;;;;;;;78.75;56.25;;;;;5.34;100.00;101910.91;5034889;28;45443;-78
2022/12/06 11:43:30;;;;;;;;;79.50;56.50;;;;;5.38;100.00;101912.50;5040276;28;45373;-81
2022/12/06 11:45:56;;;;;;;;;79.25;59.00;;;;;5.44;100.00;101904.06;5039742;28;48187;-78
2022/12/06 11:48:27;;;;;;;;;78.75;56.50;;;;;5.48;100.00;101897.53;5034871;28;45266;-79